Scottish Viking — IBDZ — position and weather

sailwx.info

Track history (hours):
 
Tides and Currents Weather Stations Pressure Air Temp Water Temp Dewpoint Dewpoint Depression Visibility Wind Speed Wind Dir Waves Ship Positions

Scottish Viking

Last reported at 2014-Sep-16 03:29 UTC. Time now 2014-Sep-16 13:24 UTC.
Position N 58°11' E 019°16'.

Length 186 m; draft 6.8 m.

Type: Ship. MMSI: 247265800.

Date/timePositionNaut miles runAvg speedWind from/ knotsBaromVisibWave heightAir tempDewpointWater temp
2014-Sep-16 03:29N 58°11' E 019°16'1314.4
2014-Sep-16 02:33N 58°04' E 019°38'6214.2
2014-Sep-15 22:11N 57°31' E 021°17'6 1.0
2014-Sep-15 16:30N 57°34' E 021°08'2322.3
2014-Sep-15 15:29N 57°45' E 020°31'76 6.9
2014-Sep-15 04:30N 58°31' E 018°37'  
2014-Sep-12 05:04N 58°48' E 018°04'  
2014-Sep-08 09:33N 58°46' E 018°07'5 1.3
2014-Sep-08 05:28N 58°42' E 018°14'2122.5
2014-Sep-08 04:33N 58°27' E 018°42'1111.4
2014-Sep-08 03:34N 58°19' E 018°57'1714.3
2014-Sep-08 02:20N 58°09' E 019°23'1114.5
2014-Sep-08 01:34N 58°03' E 019°42'1514.5
2014-Sep-08 00:33N 57°56' E 020°06'1614.4
2014-Sep-07 23:25N 57°47' E 020°32'24 2.2
2014-Sep-07 12:31N 57°59' E 019°54'2522.1
2014-Sep-07 11:24N 58°12' E 019°14'1513.0
2014-Sep-07 10:17N 58°21' E 018°53'1013.9
2014-Sep-07 09:33N 58°28' E 018°40'1413.5
2014-Sep-07 08:33N 58°38' E 018°22'1312.6
2014-Sep-07 07:34N 58°47' E 018°05'5 1.3
2014-Sep-07 03:13N 58°52' E 018°01'1710.4
2014-Sep-07 01:33N 58°39' E 018°22'1313.4
2014-Sep-07 00:33N 58°30' E 018°41'1413.3
2014-Sep-06 23:29N 58°18' E 018°56'4413.8
2014-Sep-06 20:16N 57°52' E 020°04'1113.8
2014-Sep-06 19:28N 57°41' E 020°09'1112.0
2014-Sep-06 18:34N 57°35' E 020°26'39 3.2
2014-Sep-06 06:32N 57°24' E 021°35'1414.5
2014-Sep-06 05:33N 57°32' E 021°13'1919.4
2014-Sep-06 04:33N 57°43' E 020°43'1111.2
2014-Sep-06 03:33N 57°49' E 020°24'  
Track history (hours):
 
Tides and Currents Weather Stations Pressure Air Temp Water Temp Dewpoint Dewpoint Depression Visibility Wind Speed Wind Dir Waves Ship Positions

Scottish Viking

Last reported at 2014-Sep-16 03:29 UTC. Time now 2014-Sep-16 13:24 UTC.
Position N 58°11' E 019°16'.

Length 186 m; draft 6.8 m.

Type: Ship. MMSI: 247265800.

Date/timePositionNaut miles runAvg speedWind from/ knotsBaromVisibWave heightAir tempDewpointWater temp
2014-Sep-16 03:29N 58°11' E 019°16'1314.4
2014-Sep-16 02:33N 58°04' E 019°38'6214.2
2014-Sep-15 22:11N 57°31' E 021°17'6 1.0
2014-Sep-15 16:30N 57°34' E 021°08'2322.3
2014-Sep-15 15:29N 57°45' E 020°31'76 6.9
2014-Sep-15 04:30N 58°31' E 018°37'  
2014-Sep-12 05:04N 58°48' E 018°04'  
2014-Sep-08 09:33N 58°46' E 018°07'5 1.3
2014-Sep-08 05:28N 58°42' E 018°14'2122.5
2014-Sep-08 04:33N 58°27' E 018°42'1111.4
2014-Sep-08 03:34N 58°19' E 018°57'1714.3
2014-Sep-08 02:20N 58°09' E 019°23'1114.5
2014-Sep-08 01:34N 58°03' E 019°42'1514.5
2014-Sep-08 00:33N 57°56' E 020°06'1614.4
2014-Sep-07 23:25N 57°47' E 020°32'24 2.2
2014-Sep-07 12:31N 57°59' E 019°54'2522.1
2014-Sep-07 11:24N 58°12' E 019°14'1513.0
2014-Sep-07 10:17N 58°21' E 018°53'1013.9
2014-Sep-07 09:33N 58°28' E 018°40'1413.5
2014-Sep-07 08:33N 58°38' E 018°22'1312.6
2014-Sep-07 07:34N 58°47' E 018°05'5 1.3
2014-Sep-07 03:13N 58°52' E 018°01'1710.4
2014-Sep-07 01:33N 58°39' E 018°22'1313.4
2014-Sep-07 00:33N 58°30' E 018°41'1413.3
2014-Sep-06 23:29N 58°18' E 018°56'4413.8
2014-Sep-06 20:16N 57°52' E 020°04'1113.8
2014-Sep-06 19:28N 57°41' E 020°09'1112.0
2014-Sep-06 18:34N 57°35' E 020°26'39 3.2
2014-Sep-06 06:32N 57°24' E 021°35'1414.5
2014-Sep-06 05:33N 57°32' E 021°13'1919.4
2014-Sep-06 04:33N 57°43' E 020°43'1111.2
2014-Sep-06 03:33N 57°49' E 020°24'  

Dump ship's entire track history